Pagrindinis puslapis
METAR-TAF:

METAR-TAF

Oro uostai :

Oro pajėgų bazė

Linšiopingas, Švedija

platuma: 58-24N, ilguma: 015-31E, Aukštis: 93 m

Dabartinis oras

Ataskaita buvo paskelbta 41 minutes, ne 11:50 UTC
Vėjas 13 kt iš Pietų/Pietvakarių
Temperatūra 20°C
Drėgmė 56%
Slėgis 1024 hPa
Matomumas 10 km arba daugiau
Išsisklaidę debesys ne aukštis 4500 ft
Su prošvaistėmis ne aukštis 7000 ft

METAR: ESCF 221150Z 21013KT 9999 SCT045 BKN070 20/11 Q1024

Laikas: 14:31 (12:31 UTC)

Prognozė

Ataskaita buvo paskelbta 1 valandą ir 1 minutes, ne 11:30 UTC
Prognozė galioja nuo 22 metu 12 UTC su 22 metu 15 UTC
Vėjas 12 kt iš Pietvakarių su gūsio iki 18 kt
Matomumas 10 km arba daugiau
Išsisklaidę debesys ne aukštis 4500 ft

TAF: ESCF 221130Z 2212/2215 23012G18KT 9999 SCT045 RMK MIL

Orai ataskaitas ir orų prognozės (METAR, TAF).

turimą stotys yra geltonos ir raudonos taškus žemėlapyje.

Perkelti pele per norėdami pamatyti stoties vardą.

Tada spustelėkite, norėdami matyti oro stebėjimo ir prognozės.

Norėdami pakeisti žemėlapį: spustelėkite ant žalios mygtukų su juodo kryžiaus žemyn,; žalią mygtuką su brūkšneliu, jei norite nutolinti; arba žalių rodyklių gretimoms žemėlapius.


METAR-TAF: